createdAt,value
2018-04-22T00:00:59.463Z,12.75
2018-04-22T00:01:59.372Z,12.79
2018-04-22T00:02:59.268Z,12.76
2018-04-22T00:03:59.215Z,12.82
2018-04-22T00:04:59.073Z,12.87
2018-04-22T00:05:58.970Z,12.78
2018-04-22T00:06:58.881Z,12.79
2018-04-22T00:07:58.785Z,12.83
2018-04-22T00:08:58.685Z,12.76
2018-04-22T00:09:58.582Z,12.60
2018-04-22T00:10:58.478Z,12.70
2018-04-22T00:11:58.389Z,12.47
2018-04-22T00:12:58.285Z,12.57
2018-04-22T00:13:58.193Z,12.49
2018-04-22T00:14:58.097Z,12.50
2018-04-22T00:15:57.990Z,12.46
2018-04-22T00:16:57.897Z,12.37
2018-04-22T00:17:57.794Z,12.32
2018-04-22T00:18:57.702Z,12.32
2018-04-22T00:19:57.598Z,12.29
2018-04-22T00:20:57.497Z,12.25
2018-04-22T00:21:57.405Z,12.24
2018-04-22T00:22:57.302Z,12.29
2018-04-22T00:23:57.211Z,12.27
2018-04-22T00:24:57.108Z,12.21
2018-04-22T00:25:57.017Z,12.15
2018-04-22T00:26:56.915Z,12.22
2018-04-22T00:27:56.823Z,12.21
2018-04-22T00:28:56.719Z,12.20
2018-04-22T00:29:56.616Z,12.20
2018-04-22T00:30:56.525Z,12.24
2018-04-22T00:31:56.426Z,12.17
2018-04-22T00:32:56.330Z,12.22
2018-04-22T00:33:56.228Z,12.21
2018-04-22T00:34:56.124Z,12.25
2018-04-22T00:35:56.035Z,12.28
2018-04-22T00:36:55.931Z,12.35
2018-04-22T00:37:55.839Z,12.29
2018-04-22T00:38:55.736Z,12.27
2018-04-22T00:39:55.633Z,12.32
2018-04-22T00:40:55.542Z,12.32
2018-04-22T00:41:55.439Z,12.32
2018-04-22T00:42:55.348Z,12.28
2018-04-22T00:43:55.244Z,12.27
2018-04-22T00:44:55.141Z,12.17
2018-04-22T00:45:55.052Z,12.21
2018-04-22T00:46:55.250Z,12.09
2018-04-22T00:47:54.858Z,12.10
2018-04-22T00:48:54.766Z,11.97
2018-04-22T00:49:54.653Z,12.03
2018-04-22T00:50:54.561Z,12.10
2018-04-22T00:51:54.458Z,12.09
2018-04-22T00:52:54.365Z,11.99
2018-04-22T00:53:54.263Z,12.00
2018-04-22T00:54:54.160Z,12.04
2018-04-22T00:55:54.069Z,11.88
2018-04-22T00:56:53.967Z,11.86
2018-04-22T00:57:53.874Z,11.80
2018-04-22T00:58:53.772Z,11.72
2018-04-22T00:59:53.668Z,11.66
2018-04-22T01:00:53.578Z,11.60
2018-04-22T01:01:53.482Z,11.68
2018-04-22T01:02:53.382Z,11.70
2018-04-22T01:03:53.280Z,11.70
2018-04-22T01:04:53.177Z,11.78
2018-04-22T01:05:53.086Z,11.55
2018-04-22T01:06:52.983Z,11.50
2018-04-22T01:07:52.890Z,11.52
2018-04-22T01:08:52.790Z,11.40
2018-04-22T01:09:52.684Z,11.37
2018-04-22T01:10:52.595Z,11.26
2018-04-22T01:11:52.742Z,11.30
2018-04-22T01:12:52.388Z,11.25
2018-04-22T01:13:52.297Z,11.12
2018-04-22T01:14:52.193Z,11.17
2018-04-22T01:15:52.104Z,11.08
2018-04-22T01:16:52.000Z,10.96
2018-04-22T01:17:51.902Z,10.94
2018-04-22T01:18:51.806Z,10.89
2018-04-22T01:19:51.714Z,10.82
2018-04-22T01:20:51.600Z,10.86
2018-04-22T01:21:51.758Z,10.74
2018-04-22T01:22:51.406Z,10.75
2018-04-22T01:23:51.315Z,10.74
2018-04-22T01:24:51.212Z,10.74
2018-04-22T01:25:51.109Z,10.76
2018-04-22T01:26:51.020Z,10.74
2018-04-22T01:27:50.917Z,10.72
2018-04-22T01:28:50.813Z,10.75
2018-04-22T01:29:50.725Z,10.76
2018-04-22T01:30:50.619Z,10.61
2018-04-22T01:31:50.766Z,10.61
2018-04-22T01:32:50.426Z,10.53
2018-04-22T01:33:50.327Z,10.51
2018-04-22T01:34:50.232Z,10.59
2018-04-22T01:35:50.128Z,10.57
2018-04-22T01:36:50.025Z,10.54
2018-04-22T01:37:49.939Z,10.46
2018-04-22T01:38:49.832Z,10.41
2018-04-22T01:39:49.729Z,10.46
2018-04-22T01:40:49.639Z,10.41
2018-04-22T01:41:49.546Z,10.37
2018-04-22T01:42:49.432Z,10.34
2018-04-22T01:43:49.340Z,10.49
2018-04-22T01:44:49.238Z,10.49
2018-04-22T01:45:49.136Z,10.44
2018-04-22T01:46:49.043Z,10.42
2018-04-22T01:47:48.939Z,10.49
2018-04-22T01:48:48.836Z,10.42
2018-04-22T01:49:48.749Z,10.37
2018-04-22T01:50:48.643Z,10.28
2018-04-22T01:51:48.852Z,10.22
2018-04-22T01:52:48.447Z,10.30
2018-04-22T01:53:48.345Z,10.31
2018-04-22T01:54:48.243Z,10.23
2018-04-22T01:55:48.152Z,10.26
2018-04-22T01:56:48.047Z,10.26
2018-04-22T01:57:47.944Z,10.20
2018-04-22T01:58:47.852Z,10.19
2018-04-22T01:59:47.749Z,10.31
2018-04-22T02:00:47.646Z,10.35
2018-04-22T02:01:47.856Z,10.40
2018-04-22T02:02:47.459Z,10.53
2018-04-22T02:03:47.362Z,10.67
2018-04-22T02:04:47.256Z,10.78
2018-04-22T02:05:47.153Z,10.89
2018-04-22T02:06:47.050Z,10.90
2018-04-22T02:07:46.959Z,10.99
2018-04-22T02:08:46.856Z,11.05
2018-04-22T02:09:46.752Z,10.89
2018-04-22T02:10:46.660Z,10.89
2018-04-22T02:11:46.559Z,10.87
2018-04-22T02:12:46.455Z,10.76
2018-04-22T02:13:46.365Z,10.78
2018-04-22T02:14:46.264Z,10.75
2018-04-22T02:15:46.161Z,10.67
2018-04-22T02:16:46.066Z,10.69
2018-04-22T02:17:45.975Z,10.75
2018-04-22T02:18:45.861Z,10.67
2018-04-22T02:19:45.769Z,10.59
2018-04-22T02:20:45.666Z,10.60
2018-04-22T02:21:45.813Z,10.49
2018-04-22T02:22:45.470Z,10.35
2018-04-22T02:23:45.367Z,10.33
2018-04-22T02:24:45.264Z,10.33
2018-04-22T02:25:45.174Z,10.23
2018-04-22T02:26:45.071Z,10.23
2018-04-22T02:27:45.004Z,10.25
2018-04-22T02:28:44.876Z,10.20
2018-04-22T02:29:44.772Z,10.25
2018-04-22T02:30:44.668Z,10.41
2018-04-22T02:31:44.583Z,10.49
2018-04-22T02:32:44.476Z,10.61
2018-04-22T02:33:44.372Z,10.67
2018-04-22T02:34:44.274Z,10.69
2018-04-22T02:35:44.178Z,10.63
2018-04-22T02:36:44.089Z,10.64
2018-04-22T02:37:43.969Z,10.69
2018-04-22T02:38:43.880Z,10.57
2018-04-22T02:39:43.777Z,10.61
2018-04-22T02:40:43.684Z,10.49
2018-04-22T02:41:43.581Z,10.61
2018-04-22T02:42:43.477Z,10.54
2018-04-22T02:43:43.374Z,10.41
2018-04-22T02:44:43.286Z,10.48
2018-04-22T02:45:43.181Z,10.37
2018-04-22T02:46:43.077Z,10.30
2018-04-22T02:47:42.986Z,10.37
2018-04-22T02:48:42.882Z,10.30
2018-04-22T02:49:42.779Z,10.22
2018-04-22T02:50:42.676Z,10.22
2018-04-22T02:51:42.586Z,10.19
2018-04-22T02:52:42.486Z,10.09
2018-04-22T02:53:42.379Z,10.09
2018-04-22T02:54:42.286Z,10.09
2018-04-22T02:55:42.183Z,10.04
2018-04-22T02:56:42.082Z,9.99
2018-04-22T02:57:41.990Z,9.99
2018-04-22T02:58:41.886Z,10.12
2018-04-22T02:59:41.783Z,10.04
2018-04-22T03:00:41.679Z,10.04
2018-04-22T03:01:41.838Z,10.05
2018-04-22T03:02:41.484Z,10.09
2018-04-22T03:03:41.381Z,10.13
2018-04-22T03:04:41.292Z,10.15
2018-04-22T03:05:41.190Z,10.19
2018-04-22T03:06:41.084Z,10.28
2018-04-22T03:07:40.994Z,10.23
2018-04-22T03:08:40.889Z,10.33
2018-04-22T03:09:40.786Z,10.37
2018-04-22T03:10:40.692Z,10.41
2018-04-22T03:11:40.596Z,10.34
2018-04-22T03:12:40.491Z,10.37
2018-04-22T03:13:40.386Z,10.31
2018-04-22T03:14:40.298Z,10.42
2018-04-22T03:15:40.190Z,10.28
2018-04-22T03:16:40.088Z,10.23
2018-04-22T03:17:39.997Z,10.22
2018-04-22T03:18:39.894Z,10.10
2018-04-22T03:19:39.793Z,10.04
2018-04-22T03:20:39.688Z,10.07
2018-04-22T03:21:39.895Z,9.99
2018-04-22T03:22:39.493Z,9.94
2018-04-22T03:23:39.401Z,9.89
2018-04-22T03:24:39.298Z,9.98
2018-04-22T03:25:39.196Z,9.97
2018-04-22T03:26:39.092Z,9.98
2018-04-22T03:27:38.992Z,9.95
2018-04-22T03:28:38.897Z,9.94
2018-04-22T03:29:38.794Z,9.91
2018-04-22T03:30:38.690Z,9.80
2018-04-22T03:31:38.601Z,9.83
2018-04-22T03:32:38.497Z,9.72
2018-04-22T03:33:38.395Z,9.79
2018-04-22T03:34:38.292Z,9.79
2018-04-22T03:35:38.204Z,9.69
2018-04-22T03:36:38.096Z,9.73
2018-04-22T03:37:37.993Z,9.65
2018-04-22T03:38:37.903Z,9.69
2018-04-22T03:39:37.800Z,9.66
2018-04-22T03:40:37.697Z,9.64
2018-04-22T03:41:37.605Z,9.62
2018-04-22T03:42:37.506Z,9.61
2018-04-22T03:43:37.402Z,9.65
2018-04-22T03:44:37.295Z,9.65
2018-04-22T03:45:37.205Z,9.54
2018-04-22T03:46:37.102Z,9.56
2018-04-22T03:47:37.003Z,9.50
2018-04-22T03:48:36.900Z,9.47
2018-04-22T03:49:36.805Z,9.41
2018-04-22T03:50:36.704Z,9.44
2018-04-22T03:51:36.903Z,9.44
2018-04-22T03:52:36.507Z,9.37
2018-04-22T03:53:36.404Z,9.34
2018-04-22T03:54:36.301Z,9.32
2018-04-22T03:55:36.198Z,9.23
2018-04-22T03:56:36.106Z,9.22
2018-04-22T03:57:36.003Z,9.32
2018-04-22T03:58:35.904Z,9.37
2018-04-22T03:59:35.798Z,9.44
2018-04-22T04:00:35.707Z,9.44
2018-04-22T04:01:35.852Z,9.56
2018-04-22T04:02:35.500Z,9.68
2018-04-22T04:03:35.399Z,9.61
2018-04-22T04:04:35.305Z,9.66
2018-04-22T04:05:35.202Z,9.74
2018-04-22T04:06:35.098Z,9.89
2018-04-22T04:07:35.009Z,9.84
2018-04-22T04:08:34.905Z,9.86
2018-04-22T04:09:34.809Z,9.99
2018-04-22T04:10:34.710Z,10.04
2018-04-22T04:11:34.607Z,10.04
2018-04-22T04:12:34.503Z,10.10
2018-04-22T04:13:34.400Z,10.33
2018-04-22T04:14:34.360Z,10.46
2018-04-22T04:15:34.206Z,10.63
2018-04-22T04:16:34.106Z,10.76
2018-04-22T04:17:34.013Z,10.97
2018-04-22T04:18:33.908Z,11.15
2018-04-22T04:19:33.805Z,11.30
2018-04-22T04:20:33.702Z,11.44
2018-04-22T04:21:33.610Z,11.63
2018-04-22T04:22:33.507Z,11.73
2018-04-22T04:23:33.404Z,11.84
2018-04-22T04:24:33.314Z,11.99
2018-04-22T04:25:33.210Z,12.15
2018-04-22T04:26:33.107Z,12.37
2018-04-22T04:27:33.017Z,12.53
2018-04-22T04:28:32.912Z,12.47
2018-04-22T04:29:32.810Z,12.67
2018-04-22T04:30:32.718Z,12.72
2018-04-22T04:31:32.615Z,12.94
2018-04-22T04:32:32.512Z,13.01
2018-04-22T04:33:32.422Z,13.11
2018-04-22T04:34:32.319Z,13.31
2018-04-22T04:35:32.227Z,13.39
2018-04-22T04:36:32.123Z,13.49
2018-04-22T04:37:32.024Z,13.62
2018-04-22T04:38:31.930Z,13.71
2018-04-22T04:39:31.834Z,13.81
2018-04-22T04:40:31.735Z,13.95
2018-04-22T04:41:31.635Z,14.08
2018-04-22T04:42:31.528Z,14.30
2018-04-22T04:43:31.488Z,14.40
2018-04-22T04:44:31.341Z,14.47
2018-04-22T04:45:31.243Z,14.54
2018-04-22T04:46:31.140Z,14.63
2018-04-22T04:47:31.050Z,14.77
2018-04-22T04:48:30.947Z,14.69
2018-04-22T04:49:30.855Z,14.72
2018-04-22T04:50:30.752Z,14.70
2018-04-22T04:51:30.962Z,14.92
2018-04-22T04:52:30.559Z,15.07
2018-04-22T04:53:30.482Z,15.14
2018-04-22T04:54:30.363Z,15.36
2018-04-22T04:55:30.275Z,15.64
2018-04-22T04:56:30.170Z,15.58
2018-04-22T04:57:30.079Z,15.67
2018-04-22T04:58:29.975Z,15.76
2018-04-22T04:59:29.885Z,15.79
2018-04-22T05:00:29.782Z,15.73
2018-04-22T05:01:29.691Z,15.82
2018-04-22T05:02:29.601Z,15.84
2018-04-22T05:03:29.497Z,15.70
2018-04-22T05:04:29.407Z,15.77
2018-04-22T05:05:29.301Z,15.72
2018-04-22T05:06:29.212Z,15.58
2018-04-22T05:07:29.119Z,15.73
2018-04-22T05:08:29.018Z,15.76
2018-04-22T05:09:28.932Z,15.80
2018-04-22T05:10:28.824Z,15.86
2018-04-22T05:11:28.733Z,15.82
2018-04-22T05:12:28.641Z,15.77
2018-04-22T05:13:28.540Z,15.80
2018-04-22T05:14:28.448Z,15.61
2018-04-22T05:15:28.363Z,15.68
2018-04-22T05:16:28.254Z,15.61
2018-04-22T05:17:28.162Z,15.91
2018-04-22T05:18:28.076Z,16.00
2018-04-22T05:19:27.968Z,15.82
2018-04-22T05:20:27.877Z,15.95
2018-04-22T05:21:27.775Z,16.15
2018-04-22T05:22:27.689Z,15.83
2018-04-22T05:23:27.592Z,15.95
2018-04-22T05:24:27.491Z,16.09
2018-04-22T05:25:27.399Z,15.95
2018-04-22T05:26:27.307Z,16.01
2018-04-22T05:27:27.217Z,16.00
2018-04-22T05:28:27.115Z,16.21
2018-04-22T05:29:27.022Z,16.49
2018-04-22T05:30:26.932Z,16.68
2018-04-22T05:31:26.830Z,16.89
2018-04-22T05:32:26.738Z,17.15
2018-04-22T05:33:26.650Z,17.38
2018-04-22T05:34:26.549Z,17.39
2018-04-22T05:35:26.453Z,17.46
2018-04-22T05:36:26.370Z,17.60
2018-04-22T05:37:26.271Z,17.98
2018-04-22T05:38:26.168Z,17.71
2018-04-22T05:39:26.081Z,17.82
2018-04-22T05:40:25.988Z,17.87
2018-04-22T05:41:26.146Z,18.13
2018-04-22T05:42:25.792Z,18.23
2018-04-22T05:43:25.702Z,18.45
2018-04-22T05:44:25.612Z,18.49
2018-04-22T05:45:25.519Z,18.75
2018-04-22T05:46:25.431Z,18.95
2018-04-22T05:47:25.326Z,18.89
2018-04-22T05:48:25.235Z,18.71
2018-04-22T05:49:25.147Z,19.09
2018-04-22T05:50:25.053Z,19.39
2018-04-22T05:51:24.963Z,19.14
2018-04-22T05:52:24.871Z,19.04
2018-04-22T05:53:24.782Z,18.77
2018-04-22T05:54:24.680Z,18.71
2018-04-22T05:55:24.588Z,18.55
2018-04-22T05:56:24.496Z,18.63
2018-04-22T05:57:24.405Z,18.73
2018-04-22T05:58:24.316Z,19.02
2018-04-22T05:59:24.236Z,19.30
2018-04-22T06:00:24.133Z,19.58
2018-04-22T06:01:24.062Z,19.69
2018-04-22T06:02:23.940Z,19.77
2018-04-22T06:03:23.848Z,20.18
2018-04-22T06:04:23.756Z,20.47
2018-04-22T06:05:23.667Z,20.75
2018-04-22T06:06:23.875Z,20.67
2018-04-22T06:07:23.486Z,20.88
2018-04-22T06:08:23.393Z,20.81
2018-04-22T06:09:23.304Z,20.77
2018-04-22T06:10:23.212Z,20.92
2018-04-22T06:11:23.121Z,20.70
2018-04-22T06:12:23.030Z,21.06
2018-04-22T06:13:22.941Z,21.25
2018-04-22T06:14:22.855Z,21.21
2018-04-22T06:15:22.759Z,21.32
2018-04-22T06:16:22.668Z,21.07
2018-04-22T06:17:22.581Z,20.97
2018-04-22T06:18:22.489Z,21.09
2018-04-22T06:19:22.401Z,21.46
2018-04-22T06:20:22.305Z,21.33
2018-04-22T06:21:22.227Z,21.00
2018-04-22T06:22:22.139Z,21.27
2018-04-22T06:23:22.044Z,21.43
2018-04-22T06:24:21.954Z,21.48
2018-04-22T06:25:21.862Z,21.55
2018-04-22T06:26:21.772Z,21.83
2018-04-22T06:27:21.681Z,21.61
2018-04-22T06:28:21.626Z,21.69
2018-04-22T06:29:21.499Z,21.66
2018-04-22T06:30:21.421Z,21.36
2018-04-22T06:31:21.320Z,21.48
2018-04-22T06:32:21.239Z,21.18
2018-04-22T06:33:21.149Z,20.97
2018-04-22T06:34:21.058Z,21.09
2018-04-22T06:35:20.966Z,20.97
2018-04-22T06:36:20.876Z,21.15
2018-04-22T06:37:20.786Z,21.60
2018-04-22T06:38:20.697Z,21.92
2018-04-22T06:39:20.616Z,21.91
2018-04-22T06:40:20.534Z,21.66
2018-04-22T06:41:20.434Z,21.82
2018-04-22T06:42:20.344Z,21.91
2018-04-22T06:43:20.254Z,22.17
2018-04-22T06:44:20.164Z,21.92
2018-04-22T06:45:20.085Z,22.26
2018-04-22T06:46:19.992Z,22.62
2018-04-22T06:47:19.903Z,22.80
2018-04-22T06:48:19.815Z,23.12
2018-04-22T06:49:19.720Z,23.48
2018-04-22T06:50:19.643Z,23.48
2018-04-22T06:51:19.801Z,23.59
2018-04-22T06:52:19.461Z,23.95
2018-04-22T06:53:19.426Z,24.14
2018-04-22T06:54:19.291Z,24.35
2018-04-22T06:55:19.201Z,24.53
2018-04-22T06:56:19.111Z,24.57
2018-04-22T06:57:19.019Z,24.18
2018-04-22T06:58:18.943Z,23.51
2018-04-22T06:59:18.850Z,23.65
2018-04-22T07:00:18.759Z,23.92
2018-04-22T07:01:18.981Z,23.47
2018-04-22T07:02:18.590Z,23.98
2018-04-22T07:03:18.514Z,23.76
2018-04-22T07:04:18.408Z,23.78
2018-04-22T07:05:18.330Z,23.91
2018-04-22T07:06:18.241Z,24.02
2018-04-22T07:07:18.150Z,24.16
2018-04-22T07:08:18.069Z,23.98
2018-04-22T07:09:17.982Z,23.96
2018-04-22T07:10:17.889Z,24.29
2018-04-22T07:11:17.810Z,24.53
2018-04-22T07:12:17.720Z,24.21
2018-04-22T07:13:17.641Z,23.83
2018-04-22T07:14:17.550Z,23.39
2018-04-22T07:15:17.460Z,23.66
2018-04-22T07:16:17.382Z,23.61
2018-04-22T07:17:17.290Z,23.93
2018-04-22T07:18:17.200Z,24.40
2018-04-22T07:19:17.121Z,24.78
2018-04-22T07:20:17.033Z,24.73
2018-04-22T07:21:17.190Z,24.98
2018-04-22T07:22:16.861Z,25.29
2018-04-22T07:23:16.770Z,25.33
2018-04-22T07:24:16.712Z,25.51
2018-04-22T07:25:16.601Z,25.51
2018-04-22T07:26:16.510Z,25.40
2018-04-22T07:27:16.420Z,24.88
2018-04-22T07:28:16.341Z,24.78
2018-04-22T07:29:16.271Z,24.47
2018-04-22T07:30:16.159Z,23.77
2018-04-22T07:31:16.069Z,23.68
2018-04-22T07:32:16.015Z,23.25
2018-04-22T07:33:15.900Z,22.98
2018-04-22T07:34:15.808Z,22.10
2018-04-22T07:35:15.746Z,21.48
2018-04-22T07:36:15.631Z,20.74
2018-04-22T07:37:15.551Z,20.37
2018-04-22T07:38:15.459Z,20.19
2018-04-22T07:39:15.367Z,19.96
2018-04-22T07:40:15.277Z,19.95
2018-04-22T07:41:15.185Z,19.69
2018-04-22T07:42:15.099Z,19.59
2018-04-22T07:43:15.003Z,19.51
2018-04-22T07:44:14.913Z,19.37
2018-04-22T07:45:14.823Z,19.31
2018-04-22T07:46:14.743Z,19.16
2018-04-22T07:47:14.655Z,19.14
2018-04-22T07:48:14.563Z,19.16
2018-04-22T07:49:14.471Z,19.12
2018-04-22T07:50:14.386Z,19.09
2018-04-22T07:51:14.290Z,19.07
2018-04-22T07:52:14.198Z,19.00
2018-04-22T07:53:14.108Z,19.11
2018-04-22T07:54:14.017Z,19.15
2018-04-22T07:55:13.929Z,19.14
2018-04-22T07:56:13.835Z,18.99
2018-04-22T07:57:13.745Z,18.99
2018-04-22T07:58:13.653Z,19.16
2018-04-22T07:59:13.563Z,19.18
2018-04-22T08:00:13.472Z,19.16
2018-04-22T08:01:13.369Z,19.18
2018-04-22T08:02:13.280Z,19.31
2018-04-22T08:03:13.187Z,19.26
2018-04-22T08:04:13.096Z,19.33
2018-04-22T08:05:13.006Z,19.24
2018-04-22T08:06:12.914Z,19.16
2018-04-22T08:07:12.823Z,19.16
2018-04-22T08:08:12.736Z,19.18
2018-04-22T08:09:12.644Z,19.27
2018-04-22T08:10:12.551Z,19.34
2018-04-22T08:11:12.461Z,19.33
2018-04-22T08:12:12.370Z,19.37
2018-04-22T08:13:12.279Z,19.37
2018-04-22T08:14:12.179Z,19.40
2018-04-22T08:15:12.090Z,19.44
2018-04-22T08:16:11.999Z,19.58
2018-04-22T08:17:11.907Z,19.24
2018-04-22T08:18:11.813Z,19.36
2018-04-22T08:19:11.722Z,19.36
2018-04-22T08:20:11.632Z,19.40
2018-04-22T08:21:11.844Z,19.36
2018-04-22T08:22:11.449Z,19.54
2018-04-22T08:23:11.348Z,19.48
2018-04-22T08:24:11.256Z,19.47
2018-04-22T08:25:11.164Z,19.48
2018-04-22T08:26:11.074Z,19.56
2018-04-22T08:27:10.982Z,19.59
2018-04-22T08:28:10.894Z,19.71
2018-04-22T08:29:10.817Z,19.64
2018-04-22T08:30:10.711Z,19.69
2018-04-22T08:31:10.620Z,19.71
2018-04-22T08:32:10.516Z,19.56
2018-04-22T08:33:10.426Z,19.52
2018-04-22T08:34:10.334Z,19.56
2018-04-22T08:35:10.248Z,19.67
2018-04-22T08:36:10.154Z,19.69
2018-04-22T08:37:10.063Z,19.73
2018-04-22T08:38:09.971Z,19.71
2018-04-22T08:39:09.881Z,19.82
2018-04-22T08:40:09.779Z,19.88
2018-04-22T08:41:09.686Z,19.96
2018-04-22T08:42:09.607Z,19.99
2018-04-22T08:43:09.505Z,19.88
2018-04-22T08:44:09.418Z,19.94
2018-04-22T08:45:09.323Z,20.06
2018-04-22T08:46:09.233Z,20.04
2018-04-22T08:47:09.145Z,20.13
2018-04-22T08:48:09.052Z,20.25
2018-04-22T08:49:08.948Z,20.55
2018-04-22T08:50:08.856Z,20.80
2018-04-22T08:51:08.766Z,20.99
2018-04-22T08:52:08.674Z,21.32
2018-04-22T08:53:08.586Z,21.40
2018-04-22T08:54:08.497Z,21.72
2018-04-22T08:55:08.403Z,22.00
2018-04-22T08:56:08.313Z,22.26
2018-04-22T08:57:08.210Z,22.53
2018-04-22T08:58:08.120Z,22.73
2018-04-22T08:59:08.028Z,23.06
2018-04-22T09:00:07.938Z,23.48
2018-04-22T09:01:07.845Z,23.84
2018-04-22T09:02:07.779Z,24.02
2018-04-22T09:03:07.664Z,24.24
2018-04-22T09:04:07.573Z,24.53
2018-04-22T09:05:07.482Z,24.86
2018-04-22T09:06:07.379Z,25.44
2018-04-22T09:07:07.288Z,25.85
2018-04-22T09:08:07.196Z,26.23
2018-04-22T09:09:07.107Z,26.63
2018-04-22T09:10:07.015Z,26.60
2018-04-22T09:11:06.927Z,26.58
2018-04-22T09:12:06.833Z,25.73
2018-04-22T09:13:06.750Z,25.63
2018-04-22T09:14:06.651Z,26.10
2018-04-22T09:15:06.571Z,26.53
2018-04-22T09:16:06.470Z,26.96
2018-04-22T09:17:06.382Z,27.08
2018-04-22T09:18:06.288Z,27.12
2018-04-22T09:19:06.198Z,26.41
2018-04-22T09:20:06.107Z,25.93
2018-04-22T09:21:06.016Z,25.44
2018-04-22T09:22:05.926Z,24.53
2018-04-22T09:23:05.835Z,23.80
2018-04-22T09:24:05.744Z,23.31
2018-04-22T09:25:05.653Z,23.21
2018-04-22T09:26:05.575Z,23.40
2018-04-22T09:27:05.496Z,23.77
2018-04-22T09:28:05.393Z,24.51
2018-04-22T09:29:05.301Z,25.35
2018-04-22T09:30:05.215Z,26.10
2018-04-22T09:31:05.122Z,26.58
2018-04-22T09:32:05.030Z,26.80
2018-04-22T09:33:04.987Z,26.99
2018-04-22T09:34:04.852Z,26.41
2018-04-22T09:35:04.771Z,26.59
2018-04-22T09:36:04.691Z,26.06
2018-04-22T09:37:04.594Z,26.19
2018-04-22T09:38:04.497Z,26.78
2018-04-22T09:39:04.418Z,26.81
2018-04-22T09:40:04.331Z,27.21
2018-04-22T09:41:04.236Z,27.36
2018-04-22T09:42:04.158Z,27.58
2018-04-22T09:43:04.123Z,28.08
2018-04-22T09:44:03.978Z,28.32
2018-04-22T09:45:03.898Z,28.52
2018-04-22T09:46:03.808Z,28.48
2018-04-22T09:47:03.730Z,28.70
2018-04-22T09:48:03.638Z,29.04
2018-04-22T09:49:03.560Z,29.17
2018-04-22T09:50:03.483Z,29.12
2018-04-22T09:51:03.392Z,29.41
2018-04-22T09:52:03.314Z,29.56
2018-04-22T09:53:03.223Z,29.20
2018-04-22T09:54:03.143Z,29.59
2018-04-22T09:55:03.065Z,29.36
2018-04-22T09:56:02.987Z,29.57
2018-04-22T09:57:02.897Z,29.57
2018-04-22T09:58:02.818Z,29.56
2018-04-22T09:59:02.740Z,29.84
2018-04-22T10:00:02.663Z,29.63
2018-04-22T10:01:02.571Z,29.54
2018-04-22T10:02:02.493Z,29.27
2018-04-22T10:03:02.416Z,29.17
2018-04-22T10:04:02.337Z,28.91
2018-04-22T10:05:02.257Z,29.24
2018-04-22T10:06:02.183Z,29.65
2018-04-22T10:07:02.098Z,29.98
2018-04-22T10:08:02.010Z,30.03
2018-04-22T10:09:01.934Z,30.09
2018-04-22T10:10:01.854Z,30.53
2018-04-22T10:11:01.777Z,30.32
2018-04-22T10:12:01.697Z,30.12
2018-04-22T10:13:01.618Z,29.86
2018-04-22T10:14:01.540Z,29.94
2018-04-22T10:15:01.462Z,29.90
2018-04-22T10:16:01.384Z,29.56
2018-04-22T10:17:01.306Z,29.07
2018-04-22T10:18:01.229Z,29.57
2018-04-22T10:19:01.149Z,29.98
2018-04-22T10:20:01.072Z,30.39
2018-04-22T10:21:00.992Z,30.88
2018-04-22T10:22:00.913Z,30.65
2018-04-22T10:23:00.837Z,31.07
2018-04-22T10:24:00.761Z,31.06
2018-04-22T10:25:00.679Z,31.22
2018-04-22T10:26:00.602Z,31.40
2018-04-22T10:27:00.522Z,31.43
2018-04-22T10:28:00.444Z,31.52
2018-04-22T10:29:00.366Z,31.55
2018-04-22T10:30:00.307Z,31.52
2018-04-22T10:31:00.221Z,31.62
2018-04-22T10:32:00.143Z,31.69
2018-04-22T10:33:00.065Z,32.03
2018-04-22T10:33:59.986Z,32.16
2018-04-22T10:34:59.908Z,32.46
2018-04-22T10:35:59.843Z,32.43
2018-04-22T10:36:59.765Z,32.48
2018-04-22T10:37:59.689Z,32.16
2018-04-22T10:38:59.607Z,31.71
2018-04-22T10:39:59.536Z,31.37
2018-04-22T10:40:59.462Z,30.96
2018-04-22T10:41:59.439Z,30.88
2018-04-22T10:42:59.306Z,30.80
2018-04-22T10:43:59.228Z,30.59
2018-04-22T10:44:59.163Z,30.97
2018-04-22T10:45:59.090Z,31.31
2018-04-22T10:46:59.011Z,31.29
2018-04-22T10:47:58.927Z,31.51
2018-04-22T10:48:58.850Z,31.64
2018-04-22T10:49:58.771Z,30.46
2018-04-22T10:50:58.708Z,29.97
2018-04-22T10:51:58.631Z,29.78
2018-04-22T10:52:58.567Z,28.08
2018-04-22T10:53:58.469Z,28.02
2018-04-22T10:54:58.391Z,27.98
2018-04-22T10:55:58.313Z,27.85
2018-04-22T10:56:58.235Z,27.90
2018-04-22T10:57:58.208Z,27.59
2018-04-22T10:58:58.077Z,27.05
2018-04-22T10:59:57.988Z,27.35
2018-04-22T11:00:57.909Z,27.29
2018-04-22T11:01:57.837Z,27.40
2018-04-22T11:02:57.752Z,27.49
2018-04-22T11:03:57.674Z,27.35
2018-04-22T11:04:57.596Z,27.74
2018-04-22T11:05:57.518Z,28.02
2018-04-22T11:06:57.427Z,28.23
2018-04-22T11:07:57.354Z,28.25
2018-04-22T11:08:57.269Z,28.11
2018-04-22T11:09:57.191Z,27.73
2018-04-22T11:10:57.114Z,27.52
2018-04-22T11:11:57.023Z,27.42
2018-04-22T11:12:56.949Z,26.71
2018-04-22T11:13:56.866Z,26.74
2018-04-22T11:14:56.775Z,26.34
2018-04-22T11:15:56.696Z,25.95
2018-04-22T11:16:56.619Z,25.72
2018-04-22T11:17:56.529Z,25.65
2018-04-22T11:18:56.449Z,25.18
2018-04-22T11:19:56.359Z,25.21
2018-04-22T11:20:56.293Z,25.13
2018-04-22T11:21:56.201Z,25.29
2018-04-22T11:22:56.111Z,25.36
2018-04-22T11:23:56.033Z,25.23
2018-04-22T11:24:55.942Z,25.21
2018-04-22T11:25:55.863Z,24.99
2018-04-22T11:26:55.773Z,24.77
2018-04-22T11:27:55.683Z,24.50
2018-04-22T11:28:55.607Z,24.36
2018-04-22T11:29:55.513Z,24.36
2018-04-22T11:30:55.435Z,24.36
2018-04-22T11:31:55.343Z,24.24
2018-04-22T11:32:55.273Z,24.28
2018-04-22T11:33:55.177Z,24.29
2018-04-22T11:34:55.083Z,24.13
2018-04-22T11:35:55.005Z,24.32
2018-04-22T11:36:54.917Z,24.35
2018-04-22T11:37:54.824Z,24.40
2018-04-22T11:38:54.748Z,24.40
2018-04-22T11:39:54.655Z,24.42
2018-04-22T11:40:54.815Z,24.43
2018-04-22T11:41:54.485Z,24.26
2018-04-22T11:42:54.420Z,24.29
2018-04-22T11:43:54.303Z,24.26
2018-04-22T11:44:54.226Z,23.96
2018-04-22T11:45:54.135Z,23.98
2018-04-22T11:46:54.043Z,23.92
2018-04-22T11:47:53.954Z,23.96
2018-04-22T11:48:53.876Z,24.23
2018-04-22T11:49:53.786Z,24.05
2018-04-22T11:50:53.694Z,23.92
2018-04-22T11:51:53.604Z,23.93
2018-04-22T11:52:53.523Z,23.95
2018-04-22T11:53:53.434Z,24.01
2018-04-22T11:54:53.346Z,24.03
2018-04-22T11:55:53.252Z,23.92
2018-04-22T11:56:53.174Z,23.95
2018-04-22T11:57:53.083Z,23.86
2018-04-22T11:58:52.996Z,23.69
2018-04-22T11:59:52.949Z,23.80
2018-04-22T12:00:52.811Z,23.77
2018-04-22T12:01:52.733Z,23.77
2018-04-22T12:02:52.640Z,23.91
2018-04-22T12:03:52.551Z,23.96
2018-04-22T12:04:52.459Z,23.96
2018-04-22T12:05:52.378Z,23.99
2018-04-22T12:06:52.291Z,24.23
2018-04-22T12:07:52.199Z,24.24
2018-04-22T12:08:52.109Z,24.29
2018-04-22T12:09:52.017Z,24.39
2018-04-22T12:10:51.927Z,24.45
2018-04-22T12:11:51.837Z,24.40
2018-04-22T12:12:51.757Z,24.48
2018-04-22T12:13:51.667Z,24.54
2018-04-22T12:14:51.576Z,24.54
2018-04-22T12:15:51.736Z,24.60
2018-04-22T12:16:51.395Z,24.53
2018-04-22T12:17:51.316Z,24.57
2018-04-22T12:18:51.226Z,24.61
2018-04-22T12:19:51.134Z,24.69
2018-04-22T12:20:51.045Z,24.74
2018-04-22T12:21:50.955Z,24.63
2018-04-22T12:22:50.875Z,24.55
2018-04-22T12:23:50.785Z,24.50
2018-04-22T12:24:50.693Z,24.55
2018-04-22T12:25:50.602Z,24.58
2018-04-22T12:26:50.511Z,24.65
2018-04-22T12:27:50.422Z,24.70
2018-04-22T12:28:50.343Z,24.74
2018-04-22T12:29:50.255Z,24.58
2018-04-22T12:30:50.163Z,24.60
2018-04-22T12:31:50.089Z,24.60
2018-04-22T12:32:49.980Z,24.54
2018-04-22T12:33:49.890Z,24.50
2018-04-22T12:34:49.810Z,24.51
2018-04-22T12:35:49.720Z,24.42
2018-04-22T12:36:49.628Z,24.39
2018-04-22T12:37:49.570Z,24.48
2018-04-22T12:38:49.447Z,24.35
2018-04-22T12:39:49.368Z,24.38
2018-04-22T12:40:49.282Z,24.39
2018-04-22T12:41:49.186Z,24.55
2018-04-22T12:42:49.101Z,24.55
2018-04-22T12:43:49.005Z,24.63
2018-04-22T12:44:48.915Z,24.55
2018-04-22T12:45:48.836Z,24.58
2018-04-22T12:46:48.744Z,24.28
2018-04-22T12:47:48.676Z,24.26
2018-04-22T12:48:48.563Z,24.03
2018-04-22T12:49:48.477Z,23.98
2018-04-22T12:50:48.395Z,24.08
2018-04-22T12:51:48.303Z,24.17
2018-04-22T12:52:48.212Z,24.33
2018-04-22T12:53:48.140Z,24.42